EST,Max TemperatureF,Mean TemperatureF,Min TemperatureF,Max Dew PointF,MeanDew PointF,Min DewpointF,Max Humidity, Mean Humidity, Min Humidity, Max Sea Level PressureIn, Mean Sea Level PressureIn, Min Sea Level PressureIn, Max VisibilityMiles, Mean VisibilityMiles, Min VisibilityMiles, Max Wind SpeedMPH, Mean Wind SpeedMPH, Max Gust SpeedMPH,PrecipitationIn, CloudCover, Events, WindDirDegrees
2012-11-1,46,43,39,41,38,34,96,86,76,29.53,29.50,29.48,10,10,9,10,5,14,T,7,Rain,220
2012-11-2,45,41,36,40,35,30,92,80,67,29.66,29.57,29.53,10,10,9,18,9,25,0.01,7,Rain,285
2012-11-3,41,38,34,34,30,28,92,78,64,29.87,29.77,29.67,10,10,10,24,13,37,0.00,7,,294
2012-11-4,40,37,33,29,28,26,82,73,64,29.96,29.92,29.86,10,10,10,21,10,26,0.00,7,,301
2012-11-5,37,30,23,25,19,15,75,61,47,30.15,30.03,29.96,10,10,10,15,7,21,0.00,6,,323
2012-11-6,40,29,18,19,16,12,84,60,35,30.22,30.17,30.12,10,10,10,7,2,10,0.00,0,,259
2012-11-7,33,30,26,25,19,9,69,52,35,30.13,29.99,29.84,10,9,2,21,9,32,T,5,Snow,32
2012-11-8,36,34,31,28,24,19,82,71,59,29.88,29.82,29.76,10,10,6,23,11,33,T,8,Snow,330
2012-11-9,46,37,28,35,26,19,85,61,37,30.12,30.03,29.88,10,10,8,23,10,29,0.00,3,,300
2012-11-10,52,44,36,37,34,30,92,69,46,30.38,30.26,30.12,10,9,5,13,3,17,0.00,5,,275
2012-11-11,63,51,38,44,39,32,89,68,46,30.43,30.39,30.34,10,10,8,13,4,18,T,4,Rain,199
2012-11-12,63,50,36,54,45,36,100,78,55,30.40,30.31,30.11,10,8,2,24,7,35,0.00,2,,185
2012-11-13,61,48,34,55,35,24,92,77,62,30.44,30.25,30.06,10,8,2,22,9,44,0.61,7,Rain,310
2012-11-14,45,35,24,24,22,21,84,62,40,30.54,30.49,30.44,10,10,10,12,3,16,0.00,0,,330
2012-11-15,39,31,22,25,23,20,96,74,52,30.46,30.39,30.30,10,10,10,8,2,10,0.00,0,,268
2012-11-16,39,31,22,27,24,21,96,78,59,30.45,30.35,30.29,10,10,8,10,3,14,0.00,0,,280
2012-11-17,45,34,22,30,25,21,96,73,49,30.66,30.59,30.45,10,10,8,14,2,16,0.00,0,,332
2012-11-18,47,34,20,26,22,19,96,67,37,30.71,30.64,30.60,10,8,5,7,1,9,0.00,0,,111
2012-11-19,49,35,21,26,23,19,96,64,31,30.58,30.43,30.25,10,9,7,8,1,,0.00,0,,121
2012-11-20,52,37,22,28,24,20,96,62,28,30.23,30.16,30.10,10,10,6,6,1,8,0.00,0,,190
2012-11-21,51,39,26,29,23,20,92,60,28,30.26,30.20,30.14,10,10,10,7,1,10,0.00,0,,15
2012-11-22,54,38,22,33,27,22,100,68,35,30.27,30.20,30.10,10,10,6,6,0,8,0.00,0,,242
2012-11-23,55,40,24,40,30,23,100,69,38,30.08,29.88,29.58,10,7,0,15,4,21,0.01,3,Fog-Rain,208
2012-11-24,45,36,26,34,23,18,83,68,52,29.72,29.64,29.59,10,9,2,28,15,43,0.01,7,Snow,286
2012-11-25,32,29,25,24,20,17,75,69,63,29.85,29.78,29.68,10,10,3,28,12,37,T,7,Snow,274
2012-11-26,38,32,25,28,24,21,84,69,54,30.22,30.02,29.82,10,9,2,21,8,29,T,7,Snow,257
2012-11-27,33,30,27,31,29,25,100,93,85,30.28,30.22,30.18,10,4,1,7,0,9,0.05,8,Snow,239
2012-11-28,35,29,23,26,22,19,100,78,56,30.20,30.17,30.12,10,9,5,13,4,16,0.00,5,,261
2012-11-29,40,34,28,25,22,17,85,63,40,30.25,30.18,30.12,10,9,3,23,10,26,T,4,Snow,257
2012-11-30,36,31,25,25,19,8,78,60,42,30.49,30.37,30.21,10,10,10,12,4,15,0.00,8,,26